sensor_id;sensor_type;location;lat;lon;timestamp;temperature;humidity
15452;DHT22;7827;53.594;9.938;2023-04-01T00:01:15;11.10;99.90
15452;DHT22;7827;53.594;9.938;2023-04-01T00:03:43;11.10;99.90
15452;DHT22;7827;53.594;9.938;2023-04-01T00:06:14;11.10;99.90
15452;DHT22;7827;53.594;9.938;2023-04-01T00:08:44;11.10;99.90
15452;DHT22;7827;53.594;9.938;2023-04-01T00:11:14;11.00;99.90
15452;DHT22;7827;53.594;9.938;2023-04-01T00:13:43;11.10;99.90
15452;DHT22;7827;53.594;9.938;2023-04-01T00:16:12;11.10;99.90
15452;DHT22;7827;53.594;9.938;2023-04-01T00:18:50;11.10;99.90
15452;DHT22;7827;53.594;9.938;2023-04-01T00:21:20;11.10;99.90
15452;DHT22;7827;53.594;9.938;2023-04-01T00:23:49;11.10;99.90
15452;DHT22;7827;53.594;9.938;2023-04-01T00:26:18;11.10;99.90
15452;DHT22;7827;53.594;9.938;2023-04-01T00:28:49;11.10;99.90
15452;DHT22;7827;53.594;9.938;2023-04-01T00:31:17;11.10;99.90
15452;DHT22;7827;53.594;9.938;2023-04-01T00:33:46;11.00;99.90
15452;DHT22;7827;53.594;9.938;2023-04-01T00:36:18;11.10;99.90
15452;DHT22;7827;53.594;9.938;2023-04-01T00:38:48;11.10;99.90
15452;DHT22;7827;53.594;9.938;2023-04-01T00:41:19;11.10;99.90
15452;DHT22;7827;53.594;9.938;2023-04-01T00:43:50;11.00;99.90
15452;DHT22;7827;53.594;9.938;2023-04-01T00:46:20;11.00;99.90
15452;DHT22;7827;53.594;9.938;2023-04-01T00:48:51;10.90;99.90
15452;DHT22;7827;53.594;9.938;2023-04-01T00:51:25;10.90;99.90
15452;DHT22;7827;53.594;9.938;2023-04-01T00:53:58;10.90;99.90
15452;DHT22;7827;53.594;9.938;2023-04-01T00:56:31;10.90;99.90
15452;DHT22;7827;53.594;9.938;2023-04-01T00:59:07;10.90;99.90
15452;DHT22;7827;53.594;9.938;2023-04-01T01:01:39;10.90;99.90
15452;DHT22;7827;53.594;9.938;2023-04-01T01:04:24;10.90;99.90
15452;DHT22;7827;53.594;9.938;2023-04-01T01:07:03;10.90;99.90
15452;DHT22;7827;53.594;9.938;2023-04-01T01:09:53;10.90;99.90
15452;DHT22;7827;53.594;9.938;2023-04-01T01:12:33;11.00;99.90
15452;DHT22;7827;53.594;9.938;2023-04-01T01:15:12;10.90;99.90
15452;DHT22;7827;53.594;9.938;2023-04-01T01:17:54;10.90;99.90
15452;DHT22;7827;53.594;9.938;2023-04-01T01:20:48;10.90;99.90
15452;DHT22;7827;53.594;9.938;2023-04-01T01:23:55;10.90;99.90
15452;DHT22;7827;53.594;9.938;2023-04-01T01:26:45;10.90;99.90
15452;DHT22;7827;53.594;9.938;2023-04-01T01:29:35;10.90;99.90
15452;DHT22;7827;53.594;9.938;2023-04-01T01:32:29;10.90;99.90
15452;DHT22;7827;53.594;9.938;2023-04-01T01:35:16;10.90;99.90
15452;DHT22;7827;53.594;9.938;2023-04-01T01:37:52;10.90;99.90
15452;DHT22;7827;53.594;9.938;2023-04-01T01:40:25;10.90;99.90
15452;DHT22;7827;53.594;9.938;2023-04-01T01:42:58;10.90;99.90
15452;DHT22;7827;53.594;9.938;2023-04-01T01:45:28;10.90;99.90
15452;DHT22;7827;53.594;9.938;2023-04-01T01:48:02;10.90;99.90
15452;DHT22;7827;53.594;9.938;2023-04-01T01:50:35;10.80;99.90
15452;DHT22;7827;53.594;9.938;2023-04-01T01:53:05;10.70;99.90
15452;DHT22;7827;53.594;9.938;2023-04-01T01:55:37;10.70;99.90
15452;DHT22;7827;53.594;9.938;2023-04-01T01:58:13;10.80;99.90
15452;DHT22;7827;53.594;9.938;2023-04-01T02:00:50;10.80;99.90
15452;DHT22;7827;53.594;9.938;2023-04-01T02:03:23;10.80;99.90
15452;DHT22;7827;53.594;9.938;2023-04-01T02:05:57;10.80;99.90
15452;DHT22;7827;53.594;9.938;2023-04-01T02:08:33;10.90;99.90
15452;DHT22;7827;53.594;9.938;2023-04-01T02:11:06;10.80;99.90
15452;DHT22;7827;53.594;9.938;2023-04-01T02:13:43;10.90;99.90
15452;DHT22;7827;53.594;9.938;2023-04-01T02:16:19;10.80;99.90
15452;DHT22;7827;53.594;9.938;2023-04-01T02:18:55;10.90;99.90
15452;DHT22;7827;53.594;9.938;2023-04-01T02:21:29;10.90;99.90
15452;DHT22;7827;53.594;9.938;2023-04-01T02:24:02;10.90;99.90
15452;DHT22;7827;53.594;9.938;2023-04-01T02:26:34;10.90;99.90
15452;DHT22;7827;53.594;9.938;2023-04-01T02:29:05;10.90;99.90
15452;DHT22;7827;53.594;9.938;2023-04-01T02:31:36;10.90;99.90
15452;DHT22;7827;53.594;9.938;2023-04-01T02:34:04;10.90;99.90
15452;DHT22;7827;53.594;9.938;2023-04-01T02:36:35;10.90;99.90
15452;DHT22;7827;53.594;9.938;2023-04-01T02:39:05;10.90;99.90
15452;DHT22;7827;53.594;9.938;2023-04-01T02:41:39;10.90;99.90
15452;DHT22;7827;53.594;9.938;2023-04-01T02:44:08;10.90;99.90
15452;DHT22;7827;53.594;9.938;2023-04-01T02:46:37;10.80;99.90
15452;DHT22;7827;53.594;9.938;2023-04-01T02:49:06;10.80;99.90
15452;DHT22;7827;53.594;9.938;2023-04-01T02:51:36;10.80;99.90
15452;DHT22;7827;53.594;9.938;2023-04-01T02:54:04;10.80;99.90
15452;DHT22;7827;53.594;9.938;2023-04-01T02:56:33;10.70;99.90
15452;DHT22;7827;53.594;9.938;2023-04-01T02:59:01;10.80;99.90
15452;DHT22;7827;53.594;9.938;2023-04-01T03:01:30;10.80;99.90
15452;DHT22;7827;53.594;9.938;2023-04-01T03:03:58;10.80;99.90
15452;DHT22;7827;53.594;9.938;2023-04-01T03:06:26;10.70;99.90
15452;DHT22;7827;53.594;9.938;2023-04-01T03:08:56;10.70;99.90
15452;DHT22;7827;53.594;9.938;2023-04-01T03:11:25;10.70;99.90
15452;DHT22;7827;53.594;9.938;2023-04-01T03:13:54;10.70;99.90
15452;DHT22;7827;53.594;9.938;2023-04-01T03:16:22;10.70;99.90
15452;DHT22;7827;53.594;9.938;2023-04-01T03:18:51;10.70;99.90
15452;DHT22;7827;53.594;9.938;2023-04-01T03:21:22;10.70;99.90
15452;DHT22;7827;53.594;9.938;2023-04-01T03:23:52;10.80;99.90
15452;DHT22;7827;53.594;9.938;2023-04-01T03:26:22;10.70;99.90
15452;DHT22;7827;53.594;9.938;2023-04-01T03:28:50;10.70;99.90
15452;DHT22;7827;53.594;9.938;2023-04-01T03:31:18;10.70;99.90
15452;DHT22;7827;53.594;9.938;2023-04-01T03:33:53;10.70;99.90
15452;DHT22;7827;53.594;9.938;2023-04-01T03:36:22;10.60;99.90
15452;DHT22;7827;53.594;9.938;2023-04-01T03:38:50;10.60;99.90
15452;DHT22;7827;53.594;9.938;2023-04-01T03:41:26;10.70;99.90
15452;DHT22;7827;53.594;9.938;2023-04-01T03:43:54;10.60;99.90
15452;DHT22;7827;53.594;9.938;2023-04-01T03:46:23;10.60;99.90
15452;DHT22;7827;53.594;9.938;2023-04-01T03:48:51;10.60;99.90
15452;DHT22;7827;53.594;9.938;2023-04-01T03:51:19;10.60;99.90
15452;DHT22;7827;53.594;9.938;2023-04-01T03:53:48;10.60;99.90
15452;DHT22;7827;53.594;9.938;2023-04-01T03:56:17;10.60;99.90
15452;DHT22;7827;53.594;9.938;2023-04-01T03:58:46;10.60;99.90
15452;DHT22;7827;53.594;9.938;2023-04-01T04:01:17;10.50;99.90
15452;DHT22;7827;53.594;9.938;2023-04-01T04:03:49;10.50;99.90
15452;DHT22;7827;53.594;9.938;2023-04-01T04:06:19;10.60;99.90
15452;DHT22;7827;53.594;9.938;2023-04-01T04:08:48;10.60;99.90
15452;DHT22;7827;53.594;9.938;2023-04-01T04:11:17;10.60;99.90
15452;DHT22;7827;53.594;9.938;2023-04-01T04:13:52;10.60;99.90
15452;DHT22;7827;53.594;9.938;2023-04-01T04:16:22;10.60;99.90
15452;DHT22;7827;53.594;9.938;2023-04-01T04:18:58;10.60;99.90
15452;DHT22;7827;53.594;9.938;2023-04-01T04:21:26;10.60;99.90
15452;DHT22;7827;53.594;9.938;2023-04-01T04:23:55;10.50;99.90
15452;DHT22;7827;53.594;9.938;2023-04-01T04:26:23;10.50;99.90
15452;DHT22;7827;53.594;9.938;2023-04-01T04:29:01;10.50;99.90
15452;DHT22;7827;53.594;9.938;2023-04-01T04:31:30;10.50;99.90
15452;DHT22;7827;53.594;9.938;2023-04-01T04:34:00;10.50;99.90
15452;DHT22;7827;53.594;9.938;2023-04-01T04:36:32;10.50;99.90
15452;DHT22;7827;53.594;9.938;2023-04-01T04:39:00;10.50;99.90
15452;DHT22;7827;53.594;9.938;2023-04-01T04:41:31;10.50;99.90
15452;DHT22;7827;53.594;9.938;2023-04-01T04:44:04;10.50;99.90
15452;DHT22;7827;53.594;9.938;2023-04-01T04:46:33;10.50;99.90
15452;DHT22;7827;53.594;9.938;2023-04-01T04:49:10;10.50;99.90
15452;DHT22;7827;53.594;9.938;2023-04-01T04:51:39;10.40;99.90
15452;DHT22;7827;53.594;9.938;2023-04-01T04:54:07;10.50;99.90
15452;DHT22;7827;53.594;9.938;2023-04-01T04:57:02;10.40;99.90
15452;DHT22;7827;53.594;9.938;2023-04-01T04:59:37;10.40;99.90
15452;DHT22;7827;53.594;9.938;2023-04-01T05:02:11;10.40;99.90
15452;DHT22;7827;53.594;9.938;2023-04-01T05:04:39;10.40;99.90
15452;DHT22;7827;53.594;9.938;2023-04-01T05:07:09;10.40;99.90
15452;DHT22;7827;53.594;9.938;2023-04-01T05:09:38;10.40;99.90
15452;DHT22;7827;53.594;9.938;2023-04-01T05:12:06;10.30;99.90
15452;DHT22;7827;53.594;9.938;2023-04-01T05:15:03;10.40;99.90
15452;DHT22;7827;53.594;9.938;2023-04-01T05:17:32;10.30;99.90
15452;DHT22;7827;53.594;9.938;2023-04-01T05:20:02;10.30;99.90
15452;DHT22;7827;53.594;9.938;2023-04-01T05:22:31;10.10;99.90
15452;DHT22;7827;53.594;9.938;2023-04-01T05:25:00;9.90;99.90
15452;DHT22;7827;53.594;9.938;2023-04-01T05:27:28;9.80;99.90
15452;DHT22;7827;53.594;9.938;2023-04-01T05:29:57;9.50;99.90
15452;DHT22;7827;53.594;9.938;2023-04-01T05:32:49;9.30;99.90
15452;DHT22;7827;53.594;9.938;2023-04-01T05:35:19;9.10;99.90
15452;DHT22;7827;53.594;9.938;2023-04-01T05:37:47;9.00;99.90
15452;DHT22;7827;53.594;9.938;2023-04-01T05:40:16;8.90;99.90
15452;DHT22;7827;53.594;9.938;2023-04-01T05:42:44;8.80;99.90
15452;DHT22;7827;53.594;9.938;2023-04-01T05:45:14;8.70;99.90
15452;DHT22;7827;53.594;9.938;2023-04-01T05:47:56;8.60;99.90
15452;DHT22;7827;53.594;9.938;2023-04-01T05:50:24;8.50;99.90
15452;DHT22;7827;53.594;9.938;2023-04-01T05:52:52;8.50;99.90
15452;DHT22;7827;53.594;9.938;2023-04-01T05:55:22;8.50;99.90
15452;DHT22;7827;53.594;9.938;2023-04-01T05:57:51;8.40;99.90
15452;DHT22;7827;53.594;9.938;2023-04-01T06:00:19;8.30;99.90
15452;DHT22;7827;53.594;9.938;2023-04-01T06:02:48;8.30;99.90
15452;DHT22;7827;53.594;9.938;2023-04-01T06:05:22;8.30;99.90
15452;DHT22;7827;53.594;9.938;2023-04-01T06:07:55;8.30;99.90
15452;DHT22;7827;53.594;9.938;2023-04-01T06:10:43;8.30;99.90
15452;DHT22;7827;53.594;9.938;2023-04-01T06:13:27;8.20;99.90
15452;DHT22;7827;53.594;9.938;2023-04-01T06:16:10;8.10;99.90
15452;DHT22;7827;53.594;9.938;2023-04-01T06:18:57;8.10;99.90
15452;DHT22;7827;53.594;9.938;2023-04-01T06:21:47;8.00;99.90
15452;DHT22;7827;53.594;9.938;2023-04-01T06:24:41;7.90;99.90
15452;DHT22;7827;53.594;9.938;2023-04-01T06:27:30;7.90;99.90
15452;DHT22;7827;53.594;9.938;2023-04-01T06:30:29;7.80;99.90
15452;DHT22;7827;53.594;9.938;2023-04-01T06:33:11;7.70;99.90
15452;DHT22;7827;53.594;9.938;2023-04-01T06:35:58;7.60;99.90
15452;DHT22;7827;53.594;9.938;2023-04-01T06:38:54;7.60;99.90
15452;DHT22;7827;53.594;9.938;2023-04-01T06:42:10;7.50;99.90
15452;DHT22;7827;53.594;9.938;2023-04-01T06:44:56;7.50;99.90
15452;DHT22;7827;53.594;9.938;2023-04-01T06:51:48;7.40;99.90
15452;DHT22;7827;53.594;9.938;2023-04-01T06:54:49;7.40;99.90
15452;DHT22;7827;53.594;9.938;2023-04-01T06:57:41;7.40;99.90
15452;DHT22;7827;53.594;9.938;2023-04-01T07:00:15;7.40;99.90
15452;DHT22;7827;53.594;9.938;2023-04-01T07:02:56;7.40;99.90
15452;DHT22;7827;53.594;9.938;2023-04-01T07:05:34;7.70;99.90
15452;DHT22;7827;53.594;9.938;2023-04-01T07:08:06;7.80;99.90
15452;DHT22;7827;53.594;9.938;2023-04-01T07:10:44;7.60;99.90
15452;DHT22;7827;53.594;9.938;2023-04-01T07:13:38;7.40;99.90
15452;DHT22;7827;53.594;9.938;2023-04-01T07:16:19;7.30;99.90
15452;DHT22;7827;53.594;9.938;2023-04-01T07:18:56;7.20;99.90
15452;DHT22;7827;53.594;9.938;2023-04-01T07:21:41;7.20;99.90
15452;DHT22;7827;53.594;9.938;2023-04-01T07:24:25;7.10;99.90
15452;DHT22;7827;53.594;9.938;2023-04-01T07:27:08;7.10;99.90
15452;DHT22;7827;53.594;9.938;2023-04-01T07:29:38;7.10;99.90
15452;DHT22;7827;53.594;9.938;2023-04-01T07:32:21;7.10;99.90
15452;DHT22;7827;53.594;9.938;2023-04-01T07:35:07;7.10;99.90
15452;DHT22;7827;53.594;9.938;2023-04-01T07:37:52;7.10;99.90
15452;DHT22;7827;53.594;9.938;2023-04-01T07:40:46;7.10;99.90
15452;DHT22;7827;53.594;9.938;2023-04-01T07:43:40;7.10;99.90
15452;DHT22;7827;53.594;9.938;2023-04-01T07:46:40;7.20;99.90
15452;DHT22;7827;53.594;9.938;2023-04-01T07:49:23;7.20;99.90
15452;DHT22;7827;53.594;9.938;2023-04-01T07:52:01;7.10;99.90
15452;DHT22;7827;53.594;9.938;2023-04-01T07:54:42;7.10;99.90
15452;DHT22;7827;53.594;9.938;2023-04-01T07:57:20;7.10;99.90
15452;DHT22;7827;53.594;9.938;2023-04-01T08:00:00;7.10;99.90
15452;DHT22;7827;53.594;9.938;2023-04-01T08:03:06;7.10;99.90
15452;DHT22;7827;53.594;9.938;2023-04-01T08:05:54;7.10;99.90
15452;DHT22;7827;53.594;9.938;2023-04-01T08:08:35;7.10;99.90
15452;DHT22;7827;53.594;9.938;2023-04-01T08:11:55;7.10;99.90
15452;DHT22;7827;53.594;9.938;2023-04-01T08:15:13;7.10;99.90
15452;DHT22;7827;53.594;9.938;2023-04-01T08:18:06;7.00;99.90
15452;DHT22;7827;53.594;9.938;2023-04-01T08:20:47;6.90;99.90
15452;DHT22;7827;53.594;9.938;2023-04-01T08:23:22;7.00;99.90
15452;DHT22;7827;53.594;9.938;2023-04-01T08:25:58;7.00;99.90
15452;DHT22;7827;53.594;9.938;2023-04-01T08:28:39;7.00;99.90
15452;DHT22;7827;53.594;9.938;2023-04-01T08:31:16;6.90;99.90
15452;DHT22;7827;53.594;9.938;2023-04-01T08:33:53;6.90;99.90
15452;DHT22;7827;53.594;9.938;2023-04-01T08:36:26;6.90;99.90
15452;DHT22;7827;53.594;9.938;2023-04-01T08:39:12;7.00;99.90
15452;DHT22;7827;53.594;9.938;2023-04-01T08:42:13;7.00;99.90
15452;DHT22;7827;53.594;9.938;2023-04-01T08:45:17;6.90;99.90
15452;DHT22;7827;53.594;9.938;2023-04-01T09:05:09;6.80;99.90
15452;DHT22;7827;53.594;9.938;2023-04-01T09:07:56;6.90;99.90
15452;DHT22;7827;53.594;9.938;2023-04-01T09:10:55;6.80;99.90
15452;DHT22;7827;53.594;9.938;2023-04-01T09:17:31;6.90;99.90
15452;DHT22;7827;53.594;9.938;2023-04-01T09:20:32;6.90;99.90
15452;DHT22;7827;53.594;9.938;2023-04-01T09:23:33;6.90;99.90
15452;DHT22;7827;53.594;9.938;2023-04-01T09:26:24;6.90;99.90
15452;DHT22;7827;53.594;9.938;2023-04-01T09:29:17;6.90;99.90
15452;DHT22;7827;53.594;9.938;2023-04-01T09:32:18;6.90;99.90
15452;DHT22;7827;53.594;9.938;2023-04-01T09:35:20;7.00;99.90
15452;DHT22;7827;53.594;9.938;2023-04-01T09:37:59;7.00;99.90
15452;DHT22;7827;53.594;9.938;2023-04-01T09:40:46;7.00;99.90
15452;DHT22;7827;53.594;9.938;2023-04-01T09:43:55;7.10;99.90
15452;DHT22;7827;53.594;9.938;2023-04-01T09:46:53;7.10;99.90
15452;DHT22;7827;53.594;9.938;2023-04-01T09:49:43;7.20;99.90
15452;DHT22;7827;53.594;9.938;2023-04-01T09:52:31;7.20;99.90
15452;DHT22;7827;53.594;9.938;2023-04-01T10:06:45;7.20;99.90
15452;DHT22;7827;53.594;9.938;2023-04-01T10:09:54;7.20;99.90
15452;DHT22;7827;53.594;9.938;2023-04-01T10:23:32;7.20;99.90
15452;DHT22;7827;53.594;9.938;2023-04-01T10:26:38;7.30;99.90
15452;DHT22;7827;53.594;9.938;2023-04-01T10:30:45;7.30;99.90
15452;DHT22;7827;53.594;9.938;2023-04-01T10:33:58;7.40;99.90
15452;DHT22;7827;53.594;9.938;2023-04-01T10:36:53;7.30;99.90
15452;DHT22;7827;53.594;9.938;2023-04-01T10:40:00;7.30;99.90
15452;DHT22;7827;53.594;9.938;2023-04-01T10:43:23;7.20;99.90
15452;DHT22;7827;53.594;9.938;2023-04-01T10:46:39;7.20;99.90
15452;DHT22;7827;53.594;9.938;2023-04-01T10:50:00;7.20;99.90
15452;DHT22;7827;53.594;9.938;2023-04-01T10:53:00;7.20;99.90
15452;DHT22;7827;53.594;9.938;2023-04-01T10:56:40;7.20;99.90
15452;DHT22;7827;53.594;9.938;2023-04-01T11:11:02;7.10;99.90
15452;DHT22;7827;53.594;9.938;2023-04-01T11:14:18;7.20;99.90
15452;DHT22;7827;53.594;9.938;2023-04-01T11:17:22;7.30;99.90
15452;DHT22;7827;53.594;9.938;2023-04-01T11:20:52;7.40;99.90
15452;DHT22;7827;53.594;9.938;2023-04-01T11:24:11;7.40;99.90
15452;DHT22;7827;53.594;9.938;2023-04-01T11:27:15;7.20;99.90
15452;DHT22;7827;53.594;9.938;2023-04-01T11:30:19;7.10;99.90
15452;DHT22;7827;53.594;9.938;2023-04-01T11:33:02;7.10;99.90
15452;DHT22;7827;53.594;9.938;2023-04-01T11:35:48;7.10;99.90
15452;DHT22;7827;53.594;9.938;2023-04-01T11:38:31;7.10;99.90
15452;DHT22;7827;53.594;9.938;2023-04-01T11:41:34;7.10;99.90
15452;DHT22;7827;53.594;9.938;2023-04-01T11:44:45;7.10;99.90
15452;DHT22;7827;53.594;9.938;2023-04-01T11:47:59;7.10;99.90
15452;DHT22;7827;53.594;9.938;2023-04-01T11:51:20;7.10;99.90
15452;DHT22;7827;53.594;9.938;2023-04-01T11:54:03;6.90;99.90
15452;DHT22;7827;53.594;9.938;2023-04-01T11:56:51;6.90;99.90
15452;DHT22;7827;53.594;9.938;2023-04-01T11:59:47;6.90;99.90
15452;DHT22;7827;53.594;9.938;2023-04-01T12:02:34;7.00;99.90
15452;DHT22;7827;53.594;9.938;2023-04-01T12:05:36;7.00;99.90
15452;DHT22;7827;53.594;9.938;2023-04-01T12:08:20;7.00;99.90
15452;DHT22;7827;53.594;9.938;2023-04-01T12:11:00;6.90;99.90
15452;DHT22;7827;53.594;9.938;2023-04-01T12:13:43;6.90;99.90
15452;DHT22;7827;53.594;9.938;2023-04-01T12:16:27;6.80;99.90
15452;DHT22;7827;53.594;9.938;2023-04-01T12:19:10;6.80;99.90
15452;DHT22;7827;53.594;9.938;2023-04-01T12:21:52;6.80;99.90
15452;DHT22;7827;53.594;9.938;2023-04-01T12:24:45;6.80;99.90
15452;DHT22;7827;53.594;9.938;2023-04-01T12:27:38;6.70;99.90
15452;DHT22;7827;53.594;9.938;2023-04-01T12:30:24;6.80;99.90
15452;DHT22;7827;53.594;9.938;2023-04-01T12:33:34;6.80;99.90
15452;DHT22;7827;53.594;9.938;2023-04-01T12:36:46;6.80;99.90
15452;DHT22;7827;53.594;9.938;2023-04-01T12:39:33;6.70;99.90
15452;DHT22;7827;53.594;9.938;2023-04-01T12:42:44;6.70;99.90
15452;DHT22;7827;53.594;9.938;2023-04-01T12:45:31;6.50;99.90
15452;DHT22;7827;53.594;9.938;2023-04-01T12:51:36;6.40;99.90
15452;DHT22;7827;53.594;9.938;2023-04-01T12:57:52;6.40;99.90
15452;DHT22;7827;53.594;9.938;2023-04-01T13:00:54;6.40;99.90
15452;DHT22;7827;53.594;9.938;2023-04-01T13:03:44;6.40;99.90
15452;DHT22;7827;53.594;9.938;2023-04-01T13:06:49;6.50;99.90
15452;DHT22;7827;53.594;9.938;2023-04-01T13:09:36;6.50;99.90
15452;DHT22;7827;53.594;9.938;2023-04-01T13:15:35;6.50;99.90
15452;DHT22;7827;53.594;9.938;2023-04-01T13:18:20;6.60;99.90
15452;DHT22;7827;53.594;9.938;2023-04-01T13:21:03;6.60;99.90
15452;DHT22;7827;53.594;9.938;2023-04-01T13:23:51;6.60;99.90
15452;DHT22;7827;53.594;9.938;2023-04-01T13:26:33;6.60;99.90
15452;DHT22;7827;53.594;9.938;2023-04-01T13:29:10;6.50;99.90
15452;DHT22;7827;53.594;9.938;2023-04-01T13:31:53;6.40;99.90
15452;DHT22;7827;53.594;9.938;2023-04-01T13:34:38;6.30;99.90
15452;DHT22;7827;53.594;9.938;2023-04-01T13:37:29;6.30;99.90
15452;DHT22;7827;53.594;9.938;2023-04-01T13:40:26;6.40;99.90
15452;DHT22;7827;53.594;9.938;2023-04-01T13:43:08;6.40;99.90
15452;DHT22;7827;53.594;9.938;2023-04-01T13:45:55;6.40;99.90
15452;DHT22;7827;53.594;9.938;2023-04-01T13:49:04;6.40;99.90
15452;DHT22;7827;53.594;9.938;2023-04-01T13:55:28;6.50;99.90
15452;DHT22;7827;53.594;9.938;2023-04-01T14:01:32;6.50;99.90
15452;DHT22;7827;53.594;9.938;2023-04-01T14:07:36;6.40;99.90
15452;DHT22;7827;53.594;9.938;2023-04-01T14:10:22;6.40;99.90
15452;DHT22;7827;53.594;9.938;2023-04-01T14:13:05;6.40;99.90
15452;DHT22;7827;53.594;9.938;2023-04-01T14:15:52;6.40;99.90
15452;DHT22;7827;53.594;9.938;2023-04-01T14:18:48;6.40;99.90
15452;DHT22;7827;53.594;9.938;2023-04-01T14:21:32;6.30;99.90
15452;DHT22;7827;53.594;9.938;2023-04-01T14:24:20;6.30;99.90
15452;DHT22;7827;53.594;9.938;2023-04-01T14:27:24;6.30;99.90
15452;DHT22;7827;53.594;9.938;2023-04-01T14:30:31;6.30;99.90
15452;DHT22;7827;53.594;9.938;2023-04-01T14:33:21;6.30;99.90
15452;DHT22;7827;53.594;9.938;2023-04-01T14:36:12;6.30;99.90
15452;DHT22;7827;53.594;9.938;2023-04-01T14:39:03;6.30;99.90
15452;DHT22;7827;53.594;9.938;2023-04-01T14:41:48;6.30;99.90
15452;DHT22;7827;53.594;9.938;2023-04-01T14:44:45;6.20;99.90
15452;DHT22;7827;53.594;9.938;2023-04-01T14:47:48;6.20;99.90
15452;DHT22;7827;53.594;9.938;2023-04-01T14:50:23;6.30;99.90
15452;DHT22;7827;53.594;9.938;2023-04-01T14:52:59;6.30;99.90
15452;DHT22;7827;53.594;9.938;2023-04-01T14:55:49;6.20;99.90
15452;DHT22;7827;53.594;9.938;2023-04-01T14:58:20;6.20;99.90
15452;DHT22;7827;53.594;9.938;2023-04-01T15:01:13;6.10;99.90
15452;DHT22;7827;53.594;9.938;2023-04-01T15:03:57;6.00;99.90
15452;DHT22;7827;53.594;9.938;2023-04-01T15:06:45;6.00;99.90
15452;DHT22;7827;53.594;9.938;2023-04-01T15:09:38;6.00;99.90
15452;DHT22;7827;53.594;9.938;2023-04-01T15:12:22;6.10;99.90
15452;DHT22;7827;53.594;9.938;2023-04-01T15:15:16;6.00;99.90
15452;DHT22;7827;53.594;9.938;2023-04-01T15:18:07;5.90;99.90
15452;DHT22;7827;53.594;9.938;2023-04-01T15:20:45;5.90;99.90
15452;DHT22;7827;53.594;9.938;2023-04-01T15:23:31;5.90;99.90
15452;DHT22;7827;53.594;9.938;2023-04-01T15:26:35;6.00;99.90
15452;DHT22;7827;53.594;9.938;2023-04-01T15:29:54;5.90;99.90
15452;DHT22;7827;53.594;9.938;2023-04-01T15:32:43;5.90;99.90
15452;DHT22;7827;53.594;9.938;2023-04-01T15:35:25;5.80;99.90
15452;DHT22;7827;53.594;9.938;2023-04-01T15:38:05;5.80;99.90
15452;DHT22;7827;53.594;9.938;2023-04-01T15:40:45;5.70;99.90
15452;DHT22;7827;53.594;9.938;2023-04-01T15:43:30;5.80;99.90
15452;DHT22;7827;53.594;9.938;2023-04-01T15:46:44;5.70;99.90
15452;DHT22;7827;53.594;9.938;2023-04-01T15:49:26;5.70;99.90
15452;DHT22;7827;53.594;9.938;2023-04-01T15:52:13;5.70;99.90
15452;DHT22;7827;53.594;9.938;2023-04-01T15:55:13;5.80;99.90
15452;DHT22;7827;53.594;9.938;2023-04-01T15:58:00;5.80;99.90
15452;DHT22;7827;53.594;9.938;2023-04-01T16:00:49;5.70;99.90
15452;DHT22;7827;53.594;9.938;2023-04-01T16:03:35;5.60;99.90
15452;DHT22;7827;53.594;9.938;2023-04-01T16:06:18;5.70;99.90
15452;DHT22;7827;53.594;9.938;2023-04-01T16:09:16;5.60;99.90
15452;DHT22;7827;53.594;9.938;2023-04-01T16:11:57;5.50;99.90
15452;DHT22;7827;53.594;9.938;2023-04-01T16:14:44;5.50;99.90
15452;DHT22;7827;53.594;9.938;2023-04-01T16:17:31;5.60;99.90
15452;DHT22;7827;53.594;9.938;2023-04-01T16:20:20;5.50;99.90
15452;DHT22;7827;53.594;9.938;2023-04-01T16:22:55;5.50;99.90
15452;DHT22;7827;53.594;9.938;2023-04-01T16:25:32;5.40;99.90
15452;DHT22;7827;53.594;9.938;2023-04-01T16:28:17;5.40;99.90
15452;DHT22;7827;53.594;9.938;2023-04-01T16:30:58;5.40;99.90
15452;DHT22;7827;53.594;9.938;2023-04-01T16:33:38;5.40;99.90
15452;DHT22;7827;53.594;9.938;2023-04-01T16:36:21;5.40;99.90
15452;DHT22;7827;53.594;9.938;2023-04-01T16:39:18;5.40;99.90
15452;DHT22;7827;53.594;9.938;2023-04-01T16:42:08;5.40;99.90
15452;DHT22;7827;53.594;9.938;2023-04-01T16:44:50;5.40;99.90
15452;DHT22;7827;53.594;9.938;2023-04-01T16:47:29;5.40;99.90
15452;DHT22;7827;53.594;9.938;2023-04-01T16:50:11;5.30;99.90
15452;DHT22;7827;53.594;9.938;2023-04-01T16:52:53;5.30;99.90
15452;DHT22;7827;53.594;9.938;2023-04-01T16:55:46;5.20;99.90
15452;DHT22;7827;53.594;9.938;2023-04-01T16:58:23;5.10;99.90
15452;DHT22;7827;53.594;9.938;2023-04-01T17:01:00;5.10;99.90
15452;DHT22;7827;53.594;9.938;2023-04-01T17:03:37;5.00;99.90
15452;DHT22;7827;53.594;9.938;2023-04-01T17:06:21;5.00;99.90
15452;DHT22;7827;53.594;9.938;2023-04-01T17:09:19;5.00;99.90
15452;DHT22;7827;53.594;9.938;2023-04-01T17:12:03;5.00;99.90
15452;DHT22;7827;53.594;9.938;2023-04-01T17:14:45;5.00;99.90
15452;DHT22;7827;53.594;9.938;2023-04-01T17:17:29;5.00;99.90
15452;DHT22;7827;53.594;9.938;2023-04-01T17:20:12;5.00;99.90
15452;DHT22;7827;53.594;9.938;2023-04-01T17:22:59;4.90;99.90
15452;DHT22;7827;53.594;9.938;2023-04-01T17:25:46;4.90;99.90
15452;DHT22;7827;53.594;9.938;2023-04-01T17:28:29;4.90;99.90
15452;DHT22;7827;53.594;9.938;2023-04-01T17:31:10;5.00;99.90
15452;DHT22;7827;53.594;9.938;2023-04-01T17:36:58;4.90;99.90
15452;DHT22;7827;53.594;9.938;2023-04-01T17:39:48;5.10;99.90
15452;DHT22;7827;53.594;9.938;2023-04-01T17:42:33;5.10;99.90
15452;DHT22;7827;53.594;9.938;2023-04-01T17:45:11;5.00;99.90
15452;DHT22;7827;53.594;9.938;2023-04-01T17:48:03;5.00;99.90
15452;DHT22;7827;53.594;9.938;2023-04-01T17:50:58;5.00;99.90
15452;DHT22;7827;53.594;9.938;2023-04-01T17:53:39;5.00;99.90
15452;DHT22;7827;53.594;9.938;2023-04-01T17:56:21;4.90;99.90
15452;DHT22;7827;53.594;9.938;2023-04-01T17:59:06;5.00;99.90
15452;DHT22;7827;53.594;9.938;2023-04-01T18:01:46;5.00;99.90
15452;DHT22;7827;53.594;9.938;2023-04-01T18:04:36;5.00;99.90
15452;DHT22;7827;53.594;9.938;2023-04-01T18:07:39;5.00;99.90
15452;DHT22;7827;53.594;9.938;2023-04-01T18:10:24;5.00;99.90
15452;DHT22;7827;53.594;9.938;2023-04-01T18:13:23;5.10;99.90
15452;DHT22;7827;53.594;9.938;2023-04-01T18:16:22;5.00;99.90
15452;DHT22;7827;53.594;9.938;2023-04-01T18:19:02;5.00;99.90
15452;DHT22;7827;53.594;9.938;2023-04-01T18:21:45;5.00;99.90
15452;DHT22;7827;53.594;9.938;2023-04-01T18:24:20;5.00;99.90
15452;DHT22;7827;53.594;9.938;2023-04-01T18:27:02;5.00;99.90
15452;DHT22;7827;53.594;9.938;2023-04-01T18:29:40;5.00;99.90
15452;DHT22;7827;53.594;9.938;2023-04-01T18:32:23;5.00;99.90
15452;DHT22;7827;53.594;9.938;2023-04-01T18:35:12;5.00;99.90
15452;DHT22;7827;53.594;9.938;2023-04-01T18:37:49;5.00;99.90
15452;DHT22;7827;53.594;9.938;2023-04-01T18:40:27;4.90;99.90
15452;DHT22;7827;53.594;9.938;2023-04-01T18:43:12;4.90;99.90
15452;DHT22;7827;53.594;9.938;2023-04-01T18:45:50;4.90;99.90
15452;DHT22;7827;53.594;9.938;2023-04-01T18:48:40;4.90;99.90
15452;DHT22;7827;53.594;9.938;2023-04-01T18:51:18;4.80;99.90
15452;DHT22;7827;53.594;9.938;2023-04-01T18:53:55;4.80;99.90
15452;DHT22;7827;53.594;9.938;2023-04-01T18:56:29;4.70;99.90
15452;DHT22;7827;53.594;9.938;2023-04-01T18:59:04;4.70;99.90
15452;DHT22;7827;53.594;9.938;2023-04-01T19:01:43;4.60;99.90
15452;DHT22;7827;53.594;9.938;2023-04-01T19:04:25;4.50;99.90